createdAt,value
2023-01-29T00:00:14.516Z,79.73
2023-01-29T00:02:43.508Z,79.00
2023-01-29T00:05:27.049Z,79.83
2023-01-29T00:07:58.277Z,78.62
2023-01-29T00:10:27.080Z,79.06
2023-01-29T00:12:55.988Z,79.24
2023-01-29T00:15:24.654Z,78.75
2023-01-29T00:17:53.324Z,79.67
2023-01-29T00:20:22.025Z,79.51
2023-01-29T00:22:50.678Z,78.86
2023-01-29T00:25:20.651Z,78.28
2023-01-29T00:27:49.280Z,78.94
2023-01-29T00:30:19.769Z,79.12
2023-01-29T00:32:48.793Z,78.51
2023-01-29T00:35:17.586Z,78.63
2023-01-29T00:37:46.304Z,78.56
2023-01-29T00:40:15.423Z,77.67
2023-01-29T00:43:04.475Z,78.73
2023-01-29T00:45:33.186Z,78.02
2023-01-29T00:48:01.809Z,77.34
2023-01-29T00:50:30.808Z,78.00
2023-01-29T00:52:59.647Z,77.21
2023-01-29T00:55:28.390Z,78.10
2023-01-29T00:57:58.380Z,78.27
2023-01-29T01:00:26.983Z,77.90
2023-01-29T01:03:06.844Z,78.34
2023-01-29T01:05:36.821Z,78.47
2023-01-29T01:08:26.565Z,77.51
2023-01-29T01:11:02.353Z,78.40
2023-01-29T01:13:32.574Z,78.27
2023-01-29T01:16:01.398Z,79.25
2023-01-29T01:18:30.751Z,78.09
2023-01-29T01:20:59.769Z,78.40
2023-01-29T01:23:28.580Z,78.26
2023-01-29T01:25:57.376Z,77.78
2023-01-29T01:28:26.236Z,78.29
2023-01-29T01:30:56.333Z,78.39
2023-01-29T01:33:24.988Z,78.25
2023-01-29T01:35:53.609Z,78.05
2023-01-29T01:38:22.244Z,77.79
2023-01-29T01:40:50.849Z,77.98
2023-01-29T01:43:19.532Z,77.45
2023-01-29T01:45:48.454Z,77.04
2023-01-29T01:48:21.330Z,76.88
2023-01-29T01:50:52.178Z,77.31
2023-01-29T01:53:23.821Z,77.07
2023-01-29T01:55:55.991Z,76.48
2023-01-29T01:58:26.716Z,76.33
2023-01-29T02:00:56.066Z,76.27
2023-01-29T02:03:44.961Z,76.71
2023-01-29T02:06:31.396Z,76.33
2023-01-29T02:09:20.946Z,76.98
2023-01-29T02:11:49.563Z,76.29
2023-01-29T02:14:18.221Z,76.95
2023-01-29T02:16:46.886Z,76.81
2023-01-29T02:19:20.152Z,76.13
2023-01-29T02:22:25.813Z,75.77
2023-01-29T02:25:14.410Z,76.59
2023-01-29T02:28:08.457Z,75.89
2023-01-29T02:30:42.095Z,76.65
2023-01-29T02:33:17.549Z,75.60
2023-01-29T02:35:47.890Z,76.65
2023-01-29T02:38:21.348Z,76.71
2023-01-29T02:40:52.901Z,75.97
2023-01-29T02:43:31.393Z,75.77
2023-01-29T02:46:08.352Z,75.03
2023-01-29T02:48:41.839Z,75.33
2023-01-29T02:51:15.545Z,74.91
2023-01-29T02:53:50.682Z,74.11
2023-01-29T02:56:22.831Z,74.47
2023-01-29T02:58:54.147Z,73.85
2023-01-29T03:01:30.179Z,74.69
2023-01-29T03:04:01.734Z,74.78
2023-01-29T03:06:33.745Z,75.21
2023-01-29T03:09:05.599Z,74.65
2023-01-29T03:11:38.250Z,75.09
2023-01-29T03:14:10.406Z,74.74
2023-01-29T03:16:41.801Z,74.37
2023-01-29T03:19:13.252Z,74.64
2023-01-29T03:21:59.210Z,75.25
2023-01-29T03:24:52.667Z,75.52
2023-01-29T03:27:42.391Z,74.86
2023-01-29T03:30:31.707Z,75.34
2023-01-29T03:33:04.923Z,75.09
2023-01-29T03:35:37.549Z,75.15
2023-01-29T03:38:09.864Z,75.38
2023-01-29T03:40:46.779Z,75.13
2023-01-29T03:43:22.832Z,75.07
2023-01-29T03:45:59.128Z,75.13
2023-01-29T03:48:33.951Z,75.65
2023-01-29T03:51:13.203Z,74.40
2023-01-29T03:53:44.191Z,75.83
2023-01-29T03:56:22.383Z,75.26
2023-01-29T03:58:56.100Z,75.27
2023-01-29T04:01:27.280Z,75.75
2023-01-29T04:04:00.296Z,75.32
2023-01-29T04:06:31.758Z,75.85
2023-01-29T04:09:04.528Z,76.38
2023-01-29T04:11:34.467Z,75.06
2023-01-29T04:14:03.137Z,76.39
2023-01-29T04:16:36.032Z,75.67
2023-01-29T04:19:06.517Z,75.63
2023-01-29T04:21:37.468Z,76.38
2023-01-29T04:24:07.706Z,76.03
2023-01-29T04:26:50.189Z,75.60
2023-01-29T04:29:30.326Z,75.63
2023-01-29T04:32:07.559Z,75.21
2023-01-29T04:34:44.593Z,75.48
2023-01-29T04:37:16.975Z,75.86
2023-01-29T04:39:49.214Z,75.89
2023-01-29T04:42:24.135Z,76.15
2023-01-29T04:45:00.833Z,76.78
2023-01-29T04:47:35.405Z,76.14
2023-01-29T04:50:14.902Z,75.97
2023-01-29T04:52:49.098Z,76.02
2023-01-29T04:55:22.471Z,75.64
2023-01-29T04:57:54.242Z,75.26
2023-01-29T05:00:27.245Z,75.38
2023-01-29T05:02:57.176Z,75.63
2023-01-29T05:05:27.502Z,76.21
2023-01-29T05:07:58.426Z,76.71
2023-01-29T05:10:27.581Z,77.06
2023-01-29T05:12:59.829Z,77.27
2023-01-29T05:15:32.553Z,76.78
2023-01-29T05:18:02.826Z,76.94
2023-01-29T05:20:34.473Z,77.20
2023-01-29T05:23:03.259Z,76.29
2023-01-29T05:25:34.016Z,75.56
2023-01-29T05:28:04.720Z,75.87
2023-01-29T05:30:35.133Z,75.05
2023-01-29T05:33:04.489Z,75.48
2023-01-29T05:35:34.820Z,75.82
2023-01-29T05:38:04.135Z,76.04
2023-01-29T05:40:32.936Z,75.01
2023-01-29T05:43:01.633Z,75.83
2023-01-29T05:45:30.224Z,74.97
2023-01-29T05:47:59.354Z,75.30
2023-01-29T05:50:28.734Z,75.72
2023-01-29T05:52:59.641Z,75.83
2023-01-29T05:55:29.367Z,76.36
2023-01-29T05:57:57.978Z,76.31
2023-01-29T06:00:26.878Z,76.00
2023-01-29T06:02:56.532Z,75.99
2023-01-29T06:05:25.164Z,76.54
2023-01-29T06:07:53.805Z,75.69
2023-01-29T06:10:23.787Z,76.29
2023-01-29T06:12:52.402Z,76.62
2023-01-29T06:15:21.173Z,76.28
2023-01-29T06:17:49.737Z,75.88
2023-01-29T06:20:18.886Z,75.68
2023-01-29T06:22:47.742Z,74.54
2023-01-29T06:25:16.551Z,74.27
2023-01-29T06:27:46.555Z,74.71
2023-01-29T06:30:16.175Z,76.13
2023-01-29T06:32:44.886Z,74.45
2023-01-29T06:35:13.498Z,74.81
2023-01-29T06:37:42.196Z,74.64
2023-01-29T06:40:11.949Z,75.15
2023-01-29T06:42:40.584Z,74.65
2023-01-29T06:45:11.884Z,75.01
2023-01-29T06:47:40.567Z,74.21
2023-01-29T06:50:10.321Z,75.08
2023-01-29T06:52:38.998Z,76.02
2023-01-29T06:55:08.494Z,76.13
2023-01-29T06:57:37.138Z,75.32
2023-01-29T07:00:06.847Z,74.55
2023-01-29T07:02:36.787Z,74.75
2023-01-29T07:05:05.994Z,75.42
2023-01-29T07:07:36.669Z,75.62
2023-01-29T07:10:06.007Z,75.01
2023-01-29T07:12:34.643Z,74.87
2023-01-29T07:15:03.631Z,74.40
2023-01-29T07:17:32.267Z,74.68
2023-01-29T07:20:02.277Z,74.64
2023-01-29T07:22:30.850Z,75.36
2023-01-29T07:24:59.443Z,75.76
2023-01-29T07:27:28.641Z,75.13
2023-01-29T07:29:57.215Z,73.92
2023-01-29T07:32:25.846Z,74.22
2023-01-29T07:34:54.400Z,75.15
2023-01-29T07:37:24.387Z,75.10
2023-01-29T07:39:52.970Z,75.33
2023-01-29T07:42:21.609Z,73.66
2023-01-29T07:44:50.172Z,73.93
2023-01-29T07:47:18.814Z,74.10
2023-01-29T07:49:47.429Z,74.63
2023-01-29T07:52:16.062Z,74.19
2023-01-29T07:54:46.016Z,73.16
2023-01-29T07:57:14.821Z,73.34
2023-01-29T07:59:43.579Z,73.55
2023-01-29T08:02:12.223Z,74.03
2023-01-29T08:04:40.980Z,74.08
2023-01-29T08:07:09.834Z,73.73
2023-01-29T08:09:38.385Z,73.18
2023-01-29T08:12:08.527Z,73.01
2023-01-29T08:14:37.178Z,73.47
2023-01-29T08:17:05.773Z,73.79
2023-01-29T08:19:34.417Z,73.65
2023-01-29T08:22:03.043Z,73.33
2023-01-29T08:24:41.779Z,73.26
2023-01-29T08:27:21.739Z,74.41
2023-01-29T08:29:50.394Z,73.28
2023-01-29T08:32:18.964Z,74.23
2023-01-29T08:34:47.654Z,73.50
2023-01-29T08:37:16.202Z,73.53
2023-01-29T08:39:44.820Z,73.61
2023-01-29T08:42:13.447Z,73.19
2023-01-29T08:44:43.371Z,73.63
2023-01-29T08:47:12.181Z,73.93
2023-01-29T08:49:40.792Z,73.47
2023-01-29T08:52:09.395Z,73.06
2023-01-29T08:54:37.990Z,73.38
2023-01-29T08:57:06.950Z,71.98
2023-01-29T08:59:35.767Z,72.21
2023-01-29T09:02:05.756Z,71.73
2023-01-29T09:04:34.359Z,71.82
2023-01-29T09:07:02.972Z,71.65
2023-01-29T09:09:31.526Z,72.45
2023-01-29T09:12:00.171Z,72.63
2023-01-29T09:14:28.997Z,71.83
2023-01-29T09:16:57.932Z,71.90
2023-01-29T09:19:27.909Z,73.03
2023-01-29T09:21:56.544Z,72.24
2023-01-29T09:24:25.192Z,70.89
2023-01-29T09:26:53.854Z,70.96
2023-01-29T09:29:22.437Z,68.66
2023-01-29T09:31:51.108Z,70.20
2023-01-29T09:34:19.783Z,69.84
2023-01-29T09:36:49.774Z,69.62
2023-01-29T09:39:18.356Z,68.57
2023-01-29T09:41:53.250Z,67.95
2023-01-29T09:44:29.435Z,67.54
2023-01-29T09:47:00.121Z,68.90
2023-01-29T09:49:31.462Z,67.29
2023-01-29T09:52:04.033Z,68.33
2023-01-29T09:54:35.114Z,68.04
2023-01-29T09:57:03.734Z,68.68
2023-01-29T09:59:33.193Z,68.71
2023-01-29T10:02:09.119Z,68.42
2023-01-29T10:04:52.862Z,67.01
2023-01-29T10:07:48.698Z,66.18
2023-01-29T10:10:29.454Z,67.40
2023-01-29T10:13:04.250Z,67.65
2023-01-29T10:15:41.817Z,67.44
2023-01-29T10:18:37.034Z,68.08
2023-01-29T10:21:14.636Z,68.37
2023-01-29T10:23:48.065Z,68.06
2023-01-29T10:26:18.474Z,68.77
2023-01-29T10:28:50.620Z,67.68
2023-01-29T10:31:24.467Z,67.41
2023-01-29T10:34:03.188Z,67.49
2023-01-29T10:36:37.017Z,68.21
2023-01-29T10:39:07.129Z,67.78
2023-01-29T10:41:49.957Z,67.44
2023-01-29T10:44:26.089Z,66.72
2023-01-29T10:47:06.523Z,66.60
2023-01-29T10:49:58.947Z,66.44
2023-01-29T10:52:36.370Z,66.20
2023-01-29T10:55:17.478Z,66.38
2023-01-29T10:57:59.664Z,66.64
2023-01-29T11:00:31.089Z,67.61
2023-01-29T11:03:26.291Z,66.54
2023-01-29T11:06:02.680Z,64.70
2023-01-29T11:08:35.876Z,65.43
2023-01-29T11:11:09.645Z,66.64
2023-01-29T11:13:42.587Z,67.25
2023-01-29T11:16:11.662Z,68.29
2023-01-29T11:18:51.908Z,66.98
2023-01-29T11:21:20.613Z,66.89
2023-01-29T11:23:49.418Z,65.88
2023-01-29T11:26:22.343Z,66.37
2023-01-29T11:28:52.072Z,64.46
2023-01-29T11:31:23.400Z,66.06
2023-01-29T11:33:53.803Z,65.46
2023-01-29T11:36:32.710Z,66.22
2023-01-29T11:39:11.748Z,65.58
2023-01-29T11:41:46.624Z,65.25
2023-01-29T11:44:23.182Z,66.14
2023-01-29T11:46:51.872Z,66.09
2023-01-29T11:49:25.880Z,63.77
2023-01-29T11:51:56.581Z,63.25
2023-01-29T11:54:29.775Z,64.01
2023-01-29T11:56:59.926Z,64.02
2023-01-29T11:59:34.886Z,64.62
2023-01-29T12:02:13.359Z,64.44
2023-01-29T12:04:42.084Z,64.01
2023-01-29T12:07:14.596Z,65.18
2023-01-29T12:09:51.519Z,65.45
2023-01-29T12:12:33.896Z,65.67
2023-01-29T12:15:17.283Z,65.18
2023-01-29T12:17:52.684Z,64.87
2023-01-29T12:20:26.739Z,64.29
2023-01-29T12:23:02.872Z,64.28
2023-01-29T12:25:40.387Z,63.13
2023-01-29T12:28:22.489Z,63.33
2023-01-29T12:30:59.788Z,63.44
2023-01-29T12:33:32.987Z,64.63
2023-01-29T12:36:06.669Z,62.53
2023-01-29T12:38:37.067Z,62.11
2023-01-29T12:41:09.498Z,63.46
2023-01-29T12:43:42.416Z,62.49
2023-01-29T12:46:23.850Z,63.18
2023-01-29T12:48:54.153Z,64.06
2023-01-29T12:51:25.399Z,64.29
2023-01-29T12:53:57.582Z,64.40
2023-01-29T12:56:29.832Z,63.50
2023-01-29T12:59:01.693Z,63.16
2023-01-29T13:01:34.567Z,64.27
2023-01-29T13:04:06.316Z,63.43
2023-01-29T13:06:41.541Z,62.05
2023-01-29T13:09:15.327Z,62.71
2023-01-29T13:11:49.971Z,62.49
2023-01-29T13:14:23.410Z,62.85
2023-01-29T13:16:54.420Z,62.94
2023-01-29T13:19:26.863Z,62.18
2023-01-29T13:21:56.359Z,62.41
2023-01-29T13:24:26.135Z,61.59
2023-01-29T13:26:54.908Z,61.70
2023-01-29T13:29:26.400Z,62.46
2023-01-29T13:31:57.034Z,64.03
2023-01-29T13:34:28.382Z,63.06
2023-01-29T13:36:58.448Z,63.69
2023-01-29T13:39:29.724Z,63.26
2023-01-29T13:41:59.723Z,63.22
2023-01-29T13:44:32.716Z,62.44
2023-01-29T13:47:03.033Z,61.91
2023-01-29T13:49:36.219Z,62.37
2023-01-29T13:52:17.256Z,61.93
2023-01-29T13:54:52.297Z,61.66
2023-01-29T13:57:49.841Z,61.99
2023-01-29T14:01:01.377Z,62.84
2023-01-29T14:04:05.723Z,62.13
2023-01-29T14:06:49.420Z,63.34
2023-01-29T14:09:54.508Z,61.73
2023-01-29T14:12:34.861Z,61.97
2023-01-29T14:15:21.435Z,62.35
2023-01-29T14:18:18.289Z,62.28
2023-01-29T14:21:00.588Z,62.54
2023-01-29T14:23:41.528Z,61.67
2023-01-29T14:26:25.904Z,62.33
2023-01-29T14:28:58.839Z,63.03
2023-01-29T14:31:32.646Z,63.16
2023-01-29T14:34:02.258Z,63.69
2023-01-29T14:36:40.512Z,63.54
2023-01-29T14:39:21.456Z,63.65
2023-01-29T14:41:51.449Z,64.16
2023-01-29T14:44:48.904Z,64.54
2023-01-29T14:47:21.706Z,63.03
2023-01-29T14:49:52.324Z,63.75
2023-01-29T14:52:24.433Z,63.99
2023-01-29T14:54:54.332Z,64.06
2023-01-29T14:57:23.867Z,63.85
2023-01-29T14:59:57.357Z,64.72
2023-01-29T15:02:33.167Z,64.46
2023-01-29T15:05:04.529Z,64.99
2023-01-29T15:07:39.898Z,63.95
2023-01-29T15:10:23.675Z,63.93
2023-01-29T15:12:56.917Z,64.59
2023-01-29T15:15:33.941Z,64.19
2023-01-29T15:18:04.874Z,64.42
2023-01-29T15:20:35.096Z,64.13
2023-01-29T15:23:06.114Z,65.22
2023-01-29T15:25:37.355Z,64.78
2023-01-29T15:28:10.135Z,64.94
2023-01-29T15:30:39.050Z,65.79
2023-01-29T15:33:11.427Z,64.78
2023-01-29T15:35:41.851Z,64.71
2023-01-29T15:38:18.310Z,65.79
2023-01-29T15:40:53.802Z,64.97
2023-01-29T15:43:23.944Z,64.45
2023-01-29T15:45:53.339Z,63.59
2023-01-29T15:48:32.928Z,64.62
2023-01-29T15:51:04.740Z,63.88
2023-01-29T15:53:37.586Z,63.98
2023-01-29T15:56:09.203Z,65.36
2023-01-29T15:58:37.886Z,65.41
2023-01-29T16:01:07.099Z,65.04
2023-01-29T16:03:36.147Z,65.43
2023-01-29T16:06:07.123Z,64.98
2023-01-29T16:08:37.449Z,65.62
2023-01-29T16:11:07.633Z,65.60
2023-01-29T16:13:38.118Z,65.98
2023-01-29T16:16:20.689Z,66.53
2023-01-29T16:18:59.915Z,66.06
2023-01-29T16:21:31.775Z,65.98
2023-01-29T16:24:03.840Z,66.50
2023-01-29T16:26:35.164Z,66.39
2023-01-29T16:29:08.178Z,66.61
2023-01-29T16:31:37.797Z,66.85
2023-01-29T16:34:12.071Z,67.84
2023-01-29T16:36:45.743Z,67.96
2023-01-29T16:39:19.238Z,68.65
2023-01-29T16:42:08.306Z,68.58
2023-01-29T16:44:37.867Z,69.76
2023-01-29T16:47:13.723Z,69.93
2023-01-29T16:49:49.994Z,69.92
2023-01-29T16:52:21.226Z,69.50
2023-01-29T16:54:51.200Z,69.91
2023-01-29T16:57:23.252Z,70.22
2023-01-29T16:59:55.415Z,70.87
2023-01-29T17:02:27.126Z,71.20
2023-01-29T17:04:59.927Z,71.48
2023-01-29T17:07:28.819Z,71.58
2023-01-29T17:10:00.689Z,71.68
2023-01-29T17:12:30.708Z,72.76
2023-01-29T17:15:00.636Z,72.96
2023-01-29T17:17:33.608Z,72.50
2023-01-29T17:20:11.954Z,72.64
2023-01-29T17:22:42.013Z,72.43
2023-01-29T17:25:14.466Z,72.46
2023-01-29T17:27:44.233Z,72.13
2023-01-29T17:30:15.445Z,73.67
2023-01-29T17:32:47.116Z,73.28
2023-01-29T17:35:17.360Z,72.91
2023-01-29T17:37:46.268Z,73.82
2023-01-29T17:40:25.620Z,74.34
2023-01-29T17:42:54.259Z,74.70
2023-01-29T17:45:22.971Z,75.76
2023-01-29T17:47:51.551Z,75.49
2023-01-29T17:50:23.526Z,75.87
2023-01-29T17:52:53.178Z,75.93
2023-01-29T17:55:23.384Z,75.59
2023-01-29T17:57:52.046Z,76.65
2023-01-29T18:00:22.616Z,76.97
2023-01-29T18:02:51.636Z,76.79
2023-01-29T18:05:20.653Z,75.95
2023-01-29T18:07:51.687Z,76.69
2023-01-29T18:10:22.969Z,76.44
2023-01-29T18:12:51.675Z,76.87
2023-01-29T18:15:20.721Z,76.64
2023-01-29T18:17:52.145Z,77.09
2023-01-29T18:20:25.419Z,77.08
2023-01-29T18:22:54.366Z,76.80
2023-01-29T18:25:25.783Z,76.96
2023-01-29T18:27:54.458Z,76.92
2023-01-29T18:30:23.133Z,77.93
2023-01-29T18:32:51.846Z,77.08
2023-01-29T18:35:20.514Z,77.74
2023-01-29T18:37:49.524Z,77.59
2023-01-29T18:40:19.022Z,78.70
2023-01-29T18:42:49.117Z,78.68
2023-01-29T18:45:18.782Z,79.13
2023-01-29T18:47:48.617Z,79.10
2023-01-29T18:50:18.006Z,78.89
2023-01-29T18:52:46.776Z,78.87
2023-01-29T18:55:15.605Z,78.97
2023-01-29T18:58:34.231Z,79.82
2023-01-29T19:00:34.767Z,79.56
2023-01-29T19:03:03.907Z,79.41
2023-01-29T19:05:34.657Z,79.83
2023-01-29T19:08:05.187Z,80.14
2023-01-29T19:10:34.090Z,79.94
2023-01-29T19:13:04.801Z,80.73
2023-01-29T19:15:36.083Z,79.72
2023-01-29T19:18:04.910Z,80.32
2023-01-29T19:20:33.527Z,80.85
2023-01-29T19:23:02.184Z,80.72
2023-01-29T19:25:30.920Z,80.95
2023-01-29T19:27:59.585Z,80.06
2023-01-29T19:30:28.345Z,80.22
2023-01-29T19:32:58.418Z,80.79
2023-01-29T19:35:27.071Z,80.55
2023-01-29T19:37:55.939Z,80.28
2023-01-29T19:40:24.797Z,80.29
2023-01-29T19:42:54.991Z,80.33
2023-01-29T19:45:48.999Z,80.94
2023-01-29T19:48:17.563Z,81.19
2023-01-29T19:50:52.215Z,81.06
2023-01-29T19:53:20.901Z,80.52
2023-01-29T19:55:58.044Z,80.80
2023-01-29T19:58:26.887Z,80.79
2023-01-29T20:00:56.742Z,80.61
2023-01-29T20:03:27.601Z,80.83
2023-01-29T20:05:56.559Z,82.16
2023-01-29T20:08:25.267Z,81.30
2023-01-29T20:10:53.874Z,82.02
2023-01-29T20:13:22.669Z,81.95
2023-01-29T20:15:52.544Z,81.67
2023-01-29T20:18:21.417Z,81.79
2023-01-29T20:20:53.101Z,82.04
2023-01-29T20:23:35.583Z,81.55
2023-01-29T20:26:06.943Z,82.37
2023-01-29T20:28:36.059Z,82.33
2023-01-29T20:31:05.695Z,82.83
2023-01-29T20:33:35.099Z,82.94
2023-01-29T20:36:06.914Z,82.57
2023-01-29T20:38:35.928Z,82.68
2023-01-29T20:41:05.981Z,82.32
2023-01-29T20:43:35.350Z,82.38
2023-01-29T20:46:04.618Z,82.10
2023-01-29T20:48:33.530Z,81.68
2023-01-29T20:51:09.280Z,82.08
2023-01-29T20:53:38.651Z,82.33
2023-01-29T20:56:08.170Z,82.43
2023-01-29T20:58:37.691Z,81.54
2023-01-29T21:01:08.568Z,82.04
2023-01-29T21:03:37.401Z,82.92
2023-01-29T21:06:08.469Z,83.07
2023-01-29T21:08:37.190Z,82.86
2023-01-29T21:11:06.718Z,83.25
2023-01-29T21:13:35.634Z,82.88
2023-01-29T21:16:04.847Z,83.61
2023-01-29T21:18:33.575Z,82.69
2023-01-29T21:21:02.286Z,82.81
2023-01-29T21:23:32.399Z,83.50
2023-01-29T21:26:05.323Z,83.49
2023-01-29T21:28:34.116Z,83.58
2023-01-29T21:31:07.095Z,83.64
2023-01-29T21:33:35.957Z,83.11
2023-01-29T21:36:05.439Z,84.00
2023-01-29T21:38:35.401Z,84.62
2023-01-29T21:41:05.507Z,84.40
2023-01-29T21:43:33.491Z,84.37
2023-01-29T21:46:03.886Z,83.61
2023-01-29T21:48:32.587Z,83.70
2023-01-29T21:51:01.197Z,83.90
2023-01-29T21:53:29.872Z,84.84
2023-01-29T21:56:01.568Z,85.47
2023-01-29T21:58:30.306Z,85.70
2023-01-29T22:01:36.976Z,86.05
2023-01-29T22:03:47.810Z,85.32
2023-01-29T22:06:16.494Z,86.13
2023-01-29T22:08:45.102Z,85.21
2023-01-29T22:11:15.238Z,84.77
2023-01-29T22:13:43.880Z,85.06
2023-01-29T22:16:12.509Z,85.14
2023-01-29T22:18:41.093Z,85.40
2023-01-29T22:21:09.791Z,85.51
2023-01-29T22:23:39.329Z,86.26
2023-01-29T22:26:08.974Z,85.82
2023-01-29T22:28:39.051Z,86.03
2023-01-29T22:31:08.000Z,85.79
2023-01-29T22:33:36.869Z,86.36
2023-01-29T22:36:06.178Z,86.06
2023-01-29T22:38:34.860Z,86.54
2023-01-29T22:41:04.656Z,85.22
2023-01-29T22:43:33.385Z,85.04
2023-01-29T22:46:07.460Z,85.14
2023-01-29T22:48:36.141Z,86.60
2023-01-29T22:51:10.992Z,86.38
2023-01-29T22:53:41.040Z,86.04
2023-01-29T22:56:10.190Z,86.06
2023-01-29T22:58:38.887Z,86.36
2023-01-29T23:01:09.127Z,85.83
2023-01-29T23:03:38.138Z,86.04
2023-01-29T23:06:06.963Z,86.29
2023-01-29T23:08:35.688Z,86.19
2023-01-29T23:11:14.104Z,86.46
2023-01-29T23:13:44.393Z,86.21
2023-01-29T23:16:15.723Z,86.63
2023-01-29T23:18:45.444Z,86.24
2023-01-29T23:21:14.160Z,86.02
2023-01-29T23:23:44.927Z,86.45
2023-01-29T23:26:32.103Z,86.69
2023-01-29T23:29:01.276Z,87.32
2023-01-29T23:31:31.998Z,86.39
2023-01-29T23:34:00.676Z,86.97
2023-01-29T23:36:29.499Z,86.51
2023-01-29T23:38:58.170Z,87.00
2023-01-29T23:41:26.765Z,86.41
2023-01-29T23:43:55.342Z,86.23
2023-01-29T23:46:24.098Z,87.39
2023-01-29T23:48:54.121Z,86.65
2023-01-29T23:51:22.746Z,86.68
2023-01-29T23:53:51.437Z,87.30
2023-01-29T23:56:20.056Z,87.06
2023-01-29T23:58:48.666Z,87.96
